sensor_id;sensor_type;location;lat;lon;timestamp;temperature;humidity
52187;DHT22;38161;53.020;6.598;2023-05-16T00:02:06;9.90;99.90
52187;DHT22;38161;53.020;6.598;2023-05-16T00:04:31;9.90;99.90
52187;DHT22;38161;53.020;6.598;2023-05-16T00:06:58;9.90;99.90
52187;DHT22;38161;53.020;6.598;2023-05-16T00:09:23;9.80;99.90
52187;DHT22;38161;53.020;6.598;2023-05-16T00:11:49;9.80;99.90
52187;DHT22;38161;53.020;6.598;2023-05-16T00:14:15;9.80;99.90
52187;DHT22;38161;53.020;6.598;2023-05-16T00:16:41;9.80;99.90
52187;DHT22;38161;53.020;6.598;2023-05-16T00:19:07;9.80;99.90
52187;DHT22;38161;53.020;6.598;2023-05-16T00:21:33;9.80;99.90
52187;DHT22;38161;53.020;6.598;2023-05-16T00:23:58;9.80;99.90
52187;DHT22;38161;53.020;6.598;2023-05-16T00:26:25;9.70;99.90
52187;DHT22;38161;53.020;6.598;2023-05-16T00:28:51;9.70;99.90
52187;DHT22;38161;53.020;6.598;2023-05-16T00:31:16;9.70;99.90
52187;DHT22;38161;53.020;6.598;2023-05-16T00:33:42;9.60;99.90
52187;DHT22;38161;53.020;6.598;2023-05-16T00:36:08;9.60;99.90
52187;DHT22;38161;53.020;6.598;2023-05-16T00:38:34;9.60;99.90
52187;DHT22;38161;53.020;6.598;2023-05-16T00:41:00;9.50;99.90
52187;DHT22;38161;53.020;6.598;2023-05-16T00:43:26;9.50;99.90
52187;DHT22;38161;53.020;6.598;2023-05-16T00:45:51;9.50;99.90
52187;DHT22;38161;53.020;6.598;2023-05-16T00:48:17;9.50;99.90
52187;DHT22;38161;53.020;6.598;2023-05-16T00:50:43;9.50;99.90
52187;DHT22;38161;53.020;6.598;2023-05-16T00:53:09;9.40;99.90
52187;DHT22;38161;53.020;6.598;2023-05-16T00:55:36;9.40;99.90
52187;DHT22;38161;53.020;6.598;2023-05-16T00:58:04;9.40;99.90
52187;DHT22;38161;53.020;6.598;2023-05-16T01:00:30;9.30;99.90
52187;DHT22;38161;53.020;6.598;2023-05-16T01:02:56;9.30;99.90
52187;DHT22;38161;53.020;6.598;2023-05-16T01:05:22;9.30;99.90
52187;DHT22;38161;53.020;6.598;2023-05-16T01:07:48;9.30;99.90
52187;DHT22;38161;53.020;6.598;2023-05-16T01:10:14;9.30;99.90
52187;DHT22;38161;53.020;6.598;2023-05-16T01:15:25;9.20;99.90
52187;DHT22;38161;53.020;6.598;2023-05-16T01:18:28;9.20;99.90
52187;DHT22;38161;53.020;6.598;2023-05-16T01:20:58;9.10;99.90
52187;DHT22;38161;53.020;6.598;2023-05-16T01:26:28;9.00;99.90
52187;DHT22;38161;53.020;6.598;2023-05-16T01:28:56;9.00;99.90
52187;DHT22;38161;53.020;6.598;2023-05-16T01:31:23;9.00;99.90
52187;DHT22;38161;53.020;6.598;2023-05-16T01:33:49;8.90;99.90
52187;DHT22;38161;53.020;6.598;2023-05-16T01:36:23;8.90;99.90
52187;DHT22;38161;53.020;6.598;2023-05-16T01:41:52;8.80;99.90
52187;DHT22;38161;53.020;6.598;2023-05-16T01:44:55;8.80;99.90
52187;DHT22;38161;53.020;6.598;2023-05-16T01:47:21;8.80;99.90
52187;DHT22;38161;53.020;6.598;2023-05-16T01:50:15;8.80;99.90
52187;DHT22;38161;53.020;6.598;2023-05-16T01:52:55;8.70;99.90
52187;DHT22;38161;53.020;6.598;2023-05-16T01:57:55;8.60;99.90
52187;DHT22;38161;53.020;6.598;2023-05-16T02:00:21;8.60;99.90
52187;DHT22;38161;53.020;6.598;2023-05-16T02:02:47;8.60;99.90
52187;DHT22;38161;53.020;6.598;2023-05-16T02:05:13;8.50;99.90
52187;DHT22;38161;53.020;6.598;2023-05-16T02:07:39;8.40;99.90
52187;DHT22;38161;53.020;6.598;2023-05-16T02:10:06;8.40;99.90
52187;DHT22;38161;53.020;6.598;2023-05-16T02:12:32;8.40;99.90
52187;DHT22;38161;53.020;6.598;2023-05-16T02:14:58;8.40;99.90
52187;DHT22;38161;53.020;6.598;2023-05-16T02:17:24;8.40;99.90
52187;DHT22;38161;53.020;6.598;2023-05-16T02:19:49;8.40;99.90
52187;DHT22;38161;53.020;6.598;2023-05-16T02:22:15;8.40;99.90
52187;DHT22;38161;53.020;6.598;2023-05-16T02:24:41;8.40;99.90
52187;DHT22;38161;53.020;6.598;2023-05-16T02:27:06;8.40;99.90
52187;DHT22;38161;53.020;6.598;2023-05-16T02:29:32;8.50;99.90
52187;DHT22;38161;53.020;6.598;2023-05-16T02:31:58;8.40;99.90
52187;DHT22;38161;53.020;6.598;2023-05-16T02:34:27;8.40;99.90
52187;DHT22;38161;53.020;6.598;2023-05-16T02:36:52;8.40;99.90
52187;DHT22;38161;53.020;6.598;2023-05-16T02:39:18;8.30;99.90
52187;DHT22;38161;53.020;6.598;2023-05-16T02:41:44;8.30;99.90
52187;DHT22;38161;53.020;6.598;2023-05-16T02:44:10;8.30;99.90
52187;DHT22;38161;53.020;6.598;2023-05-16T02:46:35;8.30;99.90
52187;DHT22;38161;53.020;6.598;2023-05-16T02:49:01;8.30;99.90
52187;DHT22;38161;53.020;6.598;2023-05-16T02:51:28;8.30;99.90
52187;DHT22;38161;53.020;6.598;2023-05-16T02:53:54;8.30;99.90
52187;DHT22;38161;53.020;6.598;2023-05-16T02:56:24;8.20;99.90
52187;DHT22;38161;53.020;6.598;2023-05-16T02:58:52;8.30;99.90
52187;DHT22;38161;53.020;6.598;2023-05-16T03:01:17;8.30;99.90
52187;DHT22;38161;53.020;6.598;2023-05-16T03:03:43;8.30;99.90
52187;DHT22;38161;53.020;6.598;2023-05-16T03:06:09;8.30;99.90
52187;DHT22;38161;53.020;6.598;2023-05-16T03:08:35;8.30;99.90
52187;DHT22;38161;53.020;6.598;2023-05-16T03:11:01;8.30;99.90
52187;DHT22;38161;53.020;6.598;2023-05-16T03:13:27;8.30;99.90
52187;DHT22;38161;53.020;6.598;2023-05-16T03:15:55;8.30;99.90
52187;DHT22;38161;53.020;6.598;2023-05-16T03:18:21;8.30;99.90
52187;DHT22;38161;53.020;6.598;2023-05-16T03:20:46;8.20;99.90
52187;DHT22;38161;53.020;6.598;2023-05-16T03:23:12;8.20;99.90
52187;DHT22;38161;53.020;6.598;2023-05-16T03:25:38;8.20;99.90
52187;DHT22;38161;53.020;6.598;2023-05-16T03:28:05;8.10;99.90
52187;DHT22;38161;53.020;6.598;2023-05-16T03:30:32;8.10;99.90
52187;DHT22;38161;53.020;6.598;2023-05-16T03:32:58;8.10;99.90
52187;DHT22;38161;53.020;6.598;2023-05-16T03:35:24;8.10;99.90
52187;DHT22;38161;53.020;6.598;2023-05-16T03:37:50;8.10;99.90
52187;DHT22;38161;53.020;6.598;2023-05-16T03:40:16;8.10;99.90
52187;DHT22;38161;53.020;6.598;2023-05-16T03:42:42;8.10;99.90
52187;DHT22;38161;53.020;6.598;2023-05-16T03:45:08;8.10;99.90
52187;DHT22;38161;53.020;6.598;2023-05-16T03:47:34;8.00;99.90
52187;DHT22;38161;53.020;6.598;2023-05-16T03:50:00;8.00;99.90
52187;DHT22;38161;53.020;6.598;2023-05-16T03:52:25;8.30;99.90
52187;DHT22;38161;53.020;6.598;2023-05-16T03:54:51;7.90;99.90
52187;DHT22;38161;53.020;6.598;2023-05-16T03:57:17;7.90;99.90
52187;DHT22;38161;53.020;6.598;2023-05-16T03:59:43;7.90;99.90
52187;DHT22;38161;53.020;6.598;2023-05-16T04:02:08;7.90;99.90
52187;DHT22;38161;53.020;6.598;2023-05-16T04:04:37;7.90;99.90
52187;DHT22;38161;53.020;6.598;2023-05-16T04:07:02;8.00;99.90
52187;DHT22;38161;53.020;6.598;2023-05-16T04:09:28;8.00;99.90
52187;DHT22;38161;53.020;6.598;2023-05-16T04:11:55;8.00;99.90
52187;DHT22;38161;53.020;6.598;2023-05-16T04:14:22;8.10;99.90
52187;DHT22;38161;53.020;6.598;2023-05-16T04:16:48;8.10;99.90
52187;DHT22;38161;53.020;6.598;2023-05-16T04:19:14;8.10;99.90
52187;DHT22;38161;53.020;6.598;2023-05-16T04:21:40;8.10;99.90
52187;DHT22;38161;53.020;6.598;2023-05-16T04:24:07;8.10;99.90
52187;DHT22;38161;53.020;6.598;2023-05-16T04:26:33;8.10;99.90
52187;DHT22;38161;53.020;6.598;2023-05-16T04:28:58;8.10;99.90
52187;DHT22;38161;53.020;6.598;2023-05-16T04:31:24;8.10;99.90
52187;DHT22;38161;53.020;6.598;2023-05-16T04:33:51;8.10;99.90
52187;DHT22;38161;53.020;6.598;2023-05-16T04:36:17;8.10;99.90
52187;DHT22;38161;53.020;6.598;2023-05-16T04:38:43;8.20;99.90
52187;DHT22;38161;53.020;6.598;2023-05-16T04:41:11;8.20;99.90
52187;DHT22;38161;53.020;6.598;2023-05-16T04:43:37;8.20;99.90
52187;DHT22;38161;53.020;6.598;2023-05-16T04:46:03;8.20;99.90
52187;DHT22;38161;53.020;6.598;2023-05-16T04:48:29;8.30;99.90
52187;DHT22;38161;53.020;6.598;2023-05-16T04:50:55;8.30;99.90
52187;DHT22;38161;53.020;6.598;2023-05-16T04:53:21;8.40;99.90
52187;DHT22;38161;53.020;6.598;2023-05-16T04:55:47;8.40;99.90
52187;DHT22;38161;53.020;6.598;2023-05-16T04:58:13;8.40;99.90
52187;DHT22;38161;53.020;6.598;2023-05-16T05:00:39;8.40;99.90
52187;DHT22;38161;53.020;6.598;2023-05-16T05:03:07;8.50;99.90
52187;DHT22;38161;53.020;6.598;2023-05-16T05:05:33;8.50;99.90
52187;DHT22;38161;53.020;6.598;2023-05-16T05:07:59;8.60;99.90
52187;DHT22;38161;53.020;6.598;2023-05-16T05:10:25;8.60;99.90
52187;DHT22;38161;53.020;6.598;2023-05-16T05:12:52;8.60;99.90
52187;DHT22;38161;53.020;6.598;2023-05-16T05:15:18;8.70;99.90
52187;DHT22;38161;53.020;6.598;2023-05-16T05:17:44;8.70;99.90
52187;DHT22;38161;53.020;6.598;2023-05-16T05:20:10;8.70;99.90
52187;DHT22;38161;53.020;6.598;2023-05-16T05:22:36;8.70;99.90
52187;DHT22;38161;53.020;6.598;2023-05-16T05:25:02;8.60;99.90
52187;DHT22;38161;53.020;6.598;2023-05-16T05:27:28;8.60;99.90
52187;DHT22;38161;53.020;6.598;2023-05-16T05:29:54;8.70;99.90
52187;DHT22;38161;53.020;6.598;2023-05-16T05:32:20;8.70;99.90
52187;DHT22;38161;53.020;6.598;2023-05-16T05:34:46;8.70;99.90
52187;DHT22;38161;53.020;6.598;2023-05-16T05:37:12;8.70;99.90
52187;DHT22;38161;53.020;6.598;2023-05-16T05:39:38;8.70;99.90
52187;DHT22;38161;53.020;6.598;2023-05-16T05:42:04;8.70;99.90
52187;DHT22;38161;53.020;6.598;2023-05-16T05:44:30;8.80;99.90
52187;DHT22;38161;53.020;6.598;2023-05-16T05:46:56;8.80;99.90
52187;DHT22;38161;53.020;6.598;2023-05-16T05:49:24;8.80;99.90
52187;DHT22;38161;53.020;6.598;2023-05-16T05:51:49;8.80;99.90
52187;DHT22;38161;53.020;6.598;2023-05-16T05:54:19;8.90;99.90
52187;DHT22;38161;53.020;6.598;2023-05-16T05:56:45;9.00;99.90
52187;DHT22;38161;53.020;6.598;2023-05-16T05:59:11;9.10;99.90
52187;DHT22;38161;53.020;6.598;2023-05-16T06:01:37;9.10;99.90
52187;DHT22;38161;53.020;6.598;2023-05-16T06:04:03;9.20;99.90
52187;DHT22;38161;53.020;6.598;2023-05-16T06:06:28;9.30;99.90
52187;DHT22;38161;53.020;6.598;2023-05-16T06:08:55;9.40;99.90
52187;DHT22;38161;53.020;6.598;2023-05-16T06:11:21;9.50;99.90
52187;DHT22;38161;53.020;6.598;2023-05-16T06:13:47;9.60;99.90
52187;DHT22;38161;53.020;6.598;2023-05-16T06:16:12;9.70;99.90
52187;DHT22;38161;53.020;6.598;2023-05-16T06:18:38;9.80;99.90
52187;DHT22;38161;53.020;6.598;2023-05-16T06:21:04;9.90;99.90
52187;DHT22;38161;53.020;6.598;2023-05-16T06:23:31;9.90;99.90
52187;DHT22;38161;53.020;6.598;2023-05-16T06:25:57;10.00;99.90
52187;DHT22;38161;53.020;6.598;2023-05-16T06:28:23;10.10;99.90
52187;DHT22;38161;53.020;6.598;2023-05-16T06:30:49;10.20;99.90
52187;DHT22;38161;53.020;6.598;2023-05-16T06:33:17;10.20;99.90
52187;DHT22;38161;53.020;6.598;2023-05-16T06:35:45;10.30;99.90
52187;DHT22;38161;53.020;6.598;2023-05-16T06:38:13;10.40;99.90
52187;DHT22;38161;53.020;6.598;2023-05-16T06:40:39;10.50;99.90
52187;DHT22;38161;53.020;6.598;2023-05-16T06:43:05;10.60;99.90
52187;DHT22;38161;53.020;6.598;2023-05-16T06:45:31;10.60;99.90
52187;DHT22;38161;53.020;6.598;2023-05-16T06:47:57;10.70;99.90
52187;DHT22;38161;53.020;6.598;2023-05-16T06:50:23;10.80;99.90
52187;DHT22;38161;53.020;6.598;2023-05-16T06:52:49;10.80;99.90
52187;DHT22;38161;53.020;6.598;2023-05-16T06:55:14;10.80;99.90
52187;DHT22;38161;53.020;6.598;2023-05-16T06:57:41;10.90;99.90
52187;DHT22;38161;53.020;6.598;2023-05-16T07:00:07;11.00;99.90
52187;DHT22;38161;53.020;6.598;2023-05-16T07:02:33;11.10;99.90
52187;DHT22;38161;53.020;6.598;2023-05-16T07:04:59;11.10;99.90
52187;DHT22;38161;53.020;6.598;2023-05-16T07:07:25;11.20;99.90
52187;DHT22;38161;53.020;6.598;2023-05-16T07:09:51;11.20;99.90
52187;DHT22;38161;53.020;6.598;2023-05-16T07:12:16;11.70;99.90
52187;DHT22;38161;53.020;6.598;2023-05-16T07:14:42;11.30;99.90
52187;DHT22;38161;53.020;6.598;2023-05-16T07:17:09;11.40;99.90
52187;DHT22;38161;53.020;6.598;2023-05-16T07:19:35;11.40;99.90
52187;DHT22;38161;53.020;6.598;2023-05-16T07:22:00;11.50;99.90
52187;DHT22;38161;53.020;6.598;2023-05-16T07:24:26;11.50;99.90
52187;DHT22;38161;53.020;6.598;2023-05-16T07:26:52;11.50;99.90
52187;DHT22;38161;53.020;6.598;2023-05-16T07:29:18;11.50;99.90
52187;DHT22;38161;53.020;6.598;2023-05-16T07:31:43;11.60;99.90
52187;DHT22;38161;53.020;6.598;2023-05-16T07:34:10;11.70;99.90
52187;DHT22;38161;53.020;6.598;2023-05-16T07:36:37;11.80;99.90
52187;DHT22;38161;53.020;6.598;2023-05-16T07:39:03;11.90;99.90
52187;DHT22;38161;53.020;6.598;2023-05-16T07:41:29;12.00;99.90
52187;DHT22;38161;53.020;6.598;2023-05-16T07:43:55;12.10;99.90
52187;DHT22;38161;53.020;6.598;2023-05-16T07:46:21;12.10;99.90
52187;DHT22;38161;53.020;6.598;2023-05-16T07:48:47;12.00;99.90
52187;DHT22;38161;53.020;6.598;2023-05-16T07:51:13;12.00;99.90
52187;DHT22;38161;53.020;6.598;2023-05-16T07:53:42;11.90;99.90
52187;DHT22;38161;53.020;6.598;2023-05-16T07:56:07;11.90;99.90
52187;DHT22;38161;53.020;6.598;2023-05-16T07:58:33;11.70;99.90
52187;DHT22;38161;53.020;6.598;2023-05-16T08:00:59;11.70;99.90
52187;DHT22;38161;53.020;6.598;2023-05-16T08:03:25;11.70;99.90
52187;DHT22;38161;53.020;6.598;2023-05-16T08:05:51;11.90;99.90
52187;DHT22;38161;53.020;6.598;2023-05-16T08:08:17;12.00;99.90
52187;DHT22;38161;53.020;6.598;2023-05-16T08:10:43;12.20;99.90
52187;DHT22;38161;53.020;6.598;2023-05-16T08:13:09;12.30;99.90
52187;DHT22;38161;53.020;6.598;2023-05-16T08:15:35;12.40;99.90
52187;DHT22;38161;53.020;6.598;2023-05-16T08:18:01;12.70;99.90
52187;DHT22;38161;53.020;6.598;2023-05-16T08:20:27;12.80;99.90
52187;DHT22;38161;53.020;6.598;2023-05-16T08:22:53;13.00;99.90
52187;DHT22;38161;53.020;6.598;2023-05-16T08:25:19;13.20;99.90
52187;DHT22;38161;53.020;6.598;2023-05-16T08:27:47;13.20;99.90
52187;DHT22;38161;53.020;6.598;2023-05-16T08:30:13;13.20;99.90
52187;DHT22;38161;53.020;6.598;2023-05-16T08:32:39;13.30;99.90
52187;DHT22;38161;53.020;6.598;2023-05-16T08:35:05;13.40;99.90
52187;DHT22;38161;53.020;6.598;2023-05-16T08:37:31;13.40;99.90
52187;DHT22;38161;53.020;6.598;2023-05-16T08:39:58;13.40;99.90
52187;DHT22;38161;53.020;6.598;2023-05-16T08:42:24;13.30;99.90
52187;DHT22;38161;53.020;6.598;2023-05-16T08:44:50;13.30;99.90
52187;DHT22;38161;53.020;6.598;2023-05-16T08:47:18;13.40;99.90
52187;DHT22;38161;53.020;6.598;2023-05-16T08:49:47;13.50;99.90
52187;DHT22;38161;53.020;6.598;2023-05-16T08:52:17;13.60;99.90
52187;DHT22;38161;53.020;6.598;2023-05-16T08:54:44;13.70;99.90
52187;DHT22;38161;53.020;6.598;2023-05-16T08:57:12;13.90;99.90
52187;DHT22;38161;53.020;6.598;2023-05-16T08:59:39;14.00;99.90
52187;DHT22;38161;53.020;6.598;2023-05-16T09:02:06;14.10;99.90
52187;DHT22;38161;53.020;6.598;2023-05-16T09:04:33;14.30;99.90
52187;DHT22;38161;53.020;6.598;2023-05-16T09:06:58;14.40;99.90
52187;DHT22;38161;53.020;6.598;2023-05-16T09:09:24;14.50;99.90
52187;DHT22;38161;53.020;6.598;2023-05-16T09:11:50;14.60;99.90
52187;DHT22;38161;53.020;6.598;2023-05-16T09:14:16;14.50;99.90
52187;DHT22;38161;53.020;6.598;2023-05-16T09:16:44;14.50;99.90
52187;DHT22;38161;53.020;6.598;2023-05-16T09:19:12;14.60;99.90
52187;DHT22;38161;53.020;6.598;2023-05-16T09:21:39;14.70;99.90
52187;DHT22;38161;53.020;6.598;2023-05-16T09:24:06;14.70;99.90
52187;DHT22;38161;53.020;6.598;2023-05-16T09:26:33;14.50;99.90
52187;DHT22;38161;53.020;6.598;2023-05-16T09:28:59;14.30;99.90
52187;DHT22;38161;53.020;6.598;2023-05-16T09:31:27;14.30;99.90
52187;DHT22;38161;53.020;6.598;2023-05-16T09:33:56;14.10;99.90
52187;DHT22;38161;53.020;6.598;2023-05-16T09:36:22;13.90;99.90
52187;DHT22;38161;53.020;6.598;2023-05-16T09:38:52;13.90;99.90
52187;DHT22;38161;53.020;6.598;2023-05-16T09:41:18;14.00;99.90
52187;DHT22;38161;53.020;6.598;2023-05-16T09:43:46;14.20;99.90
52187;DHT22;38161;53.020;6.598;2023-05-16T09:46:15;14.50;99.90
52187;DHT22;38161;53.020;6.598;2023-05-16T09:48:46;14.70;99.90
52187;DHT22;38161;53.020;6.598;2023-05-16T09:51:13;14.90;99.90
52187;DHT22;38161;53.020;6.598;2023-05-16T09:53:40;14.90;99.90
52187;DHT22;38161;53.020;6.598;2023-05-16T09:56:09;14.80;99.90
52187;DHT22;38161;53.020;6.598;2023-05-16T09:58:37;14.70;99.90
52187;DHT22;38161;53.020;6.598;2023-05-16T10:01:04;14.70;99.90
52187;DHT22;38161;53.020;6.598;2023-05-16T10:03:32;14.70;99.90
52187;DHT22;38161;53.020;6.598;2023-05-16T10:05:59;14.70;99.90
52187;DHT22;38161;53.020;6.598;2023-05-16T10:08:25;14.60;99.90
52187;DHT22;38161;53.020;6.598;2023-05-16T10:10:54;14.80;99.90
52187;DHT22;38161;53.020;6.598;2023-05-16T10:13:23;14.90;99.90
52187;DHT22;38161;53.020;6.598;2023-05-16T10:15:50;15.10;99.90
52187;DHT22;38161;53.020;6.598;2023-05-16T10:18:20;15.30;99.90
52187;DHT22;38161;53.020;6.598;2023-05-16T10:20:48;15.50;99.90
52187;DHT22;38161;53.020;6.598;2023-05-16T10:23:18;15.50;99.90
52187;DHT22;38161;53.020;6.598;2023-05-16T10:25:46;15.30;99.90
52187;DHT22;38161;53.020;6.598;2023-05-16T10:28:14;15.30;99.90
52187;DHT22;38161;53.020;6.598;2023-05-16T10:30:42;15.40;99.90
52187;DHT22;38161;53.020;6.598;2023-05-16T10:33:11;15.50;99.90
52187;DHT22;38161;53.020;6.598;2023-05-16T10:35:37;15.70;99.90
52187;DHT22;38161;53.020;6.598;2023-05-16T10:38:04;15.80;99.90
52187;DHT22;38161;53.020;6.598;2023-05-16T10:40:31;15.80;99.90
52187;DHT22;38161;53.020;6.598;2023-05-16T10:42:59;15.80;99.90
52187;DHT22;38161;53.020;6.598;2023-05-16T10:45:25;15.70;99.90
52187;DHT22;38161;53.020;6.598;2023-05-16T10:47:56;15.70;99.90
52187;DHT22;38161;53.020;6.598;2023-05-16T10:50:44;15.80;99.90
52187;DHT22;38161;53.020;6.598;2023-05-16T10:53:14;16.00;99.90
52187;DHT22;38161;53.020;6.598;2023-05-16T10:56:08;15.90;99.90
52187;DHT22;38161;53.020;6.598;2023-05-16T11:01:34;15.80;99.90
52187;DHT22;38161;53.020;6.598;2023-05-16T11:04:02;15.60;99.90
52187;DHT22;38161;53.020;6.598;2023-05-16T11:06:46;15.40;99.90
52187;DHT22;38161;53.020;6.598;2023-05-16T11:09:20;15.40;99.90
52187;DHT22;38161;53.020;6.598;2023-05-16T11:24:50;15.80;99.90
52187;DHT22;38161;53.020;6.598;2023-05-16T11:27:24;15.90;99.90
52187;DHT22;38161;53.020;6.598;2023-05-16T11:29:51;16.10;99.90
52187;DHT22;38161;53.020;6.598;2023-05-16T11:32:21;16.10;99.90
52187;DHT22;38161;53.020;6.598;2023-05-16T11:34:49;16.00;99.90
52187;DHT22;38161;53.020;6.598;2023-05-16T11:37:16;16.00;99.90
52187;DHT22;38161;53.020;6.598;2023-05-16T11:39:42;16.10;99.90
52187;DHT22;38161;53.020;6.598;2023-05-16T11:42:08;16.00;99.90
52187;DHT22;38161;53.020;6.598;2023-05-16T11:44:34;15.90;99.90
52187;DHT22;38161;53.020;6.598;2023-05-16T11:47:00;15.70;99.90
52187;DHT22;38161;53.020;6.598;2023-05-16T11:49:27;15.50;99.90
52187;DHT22;38161;53.020;6.598;2023-05-16T11:51:53;15.40;99.90
52187;DHT22;38161;53.020;6.598;2023-05-16T11:54:19;15.30;99.90
52187;DHT22;38161;53.020;6.598;2023-05-16T11:56:45;15.30;99.90
52187;DHT22;38161;53.020;6.598;2023-05-16T11:59:11;15.30;99.90
52187;DHT22;38161;53.020;6.598;2023-05-16T12:01:38;15.20;99.90
52187;DHT22;38161;53.020;6.598;2023-05-16T12:04:08;15.20;99.90
52187;DHT22;38161;53.020;6.598;2023-05-16T12:06:35;15.30;99.90
52187;DHT22;38161;53.020;6.598;2023-05-16T12:09:03;15.40;99.90
52187;DHT22;38161;53.020;6.598;2023-05-16T12:11:36;15.40;99.90
52187;DHT22;38161;53.020;6.598;2023-05-16T12:14:03;15.30;99.90
52187;DHT22;38161;53.020;6.598;2023-05-16T12:16:30;15.30;99.90
52187;DHT22;38161;53.020;6.598;2023-05-16T12:18:57;15.30;99.90
52187;DHT22;38161;53.020;6.598;2023-05-16T12:21:23;15.30;99.90
52187;DHT22;38161;53.020;6.598;2023-05-16T12:23:49;15.30;99.90
52187;DHT22;38161;53.020;6.598;2023-05-16T12:26:28;15.20;99.90
52187;DHT22;38161;53.020;6.598;2023-05-16T12:28:59;15.10;99.90
52187;DHT22;38161;53.020;6.598;2023-05-16T12:31:28;15.10;99.90
52187;DHT22;38161;53.020;6.598;2023-05-16T12:33:55;14.80;99.90
52187;DHT22;38161;53.020;6.598;2023-05-16T12:36:23;14.70;99.90
52187;DHT22;38161;53.020;6.598;2023-05-16T12:38:50;14.90;99.90
52187;DHT22;38161;53.020;6.598;2023-05-16T12:41:20;15.10;99.90
52187;DHT22;38161;53.020;6.598;2023-05-16T12:43:49;15.30;99.90
52187;DHT22;38161;53.020;6.598;2023-05-16T12:46:15;15.30;99.90
52187;DHT22;38161;53.020;6.598;2023-05-16T12:48:41;15.20;99.90
52187;DHT22;38161;53.020;6.598;2023-05-16T12:51:17;15.10;99.90
52187;DHT22;38161;53.020;6.598;2023-05-16T12:53:45;15.00;99.90
52187;DHT22;38161;53.020;6.598;2023-05-16T12:56:12;14.90;99.90
52187;DHT22;38161;53.020;6.598;2023-05-16T12:58:38;14.90;99.90
52187;DHT22;38161;53.020;6.598;2023-05-16T13:01:04;14.90;99.90
52187;DHT22;38161;53.020;6.598;2023-05-16T13:03:31;14.90;99.90
52187;DHT22;38161;53.020;6.598;2023-05-16T13:05:57;14.90;99.90
52187;DHT22;38161;53.020;6.598;2023-05-16T13:08:24;14.90;99.90
52187;DHT22;38161;53.020;6.598;2023-05-16T13:10:50;14.90;99.90
52187;DHT22;38161;53.020;6.598;2023-05-16T13:13:16;14.90;99.90
52187;DHT22;38161;53.020;6.598;2023-05-16T13:15:46;14.90;99.90
52187;DHT22;38161;53.020;6.598;2023-05-16T13:18:13;14.90;99.90
52187;DHT22;38161;53.020;6.598;2023-05-16T13:20:39;14.80;99.90
52187;DHT22;38161;53.020;6.598;2023-05-16T13:23:05;14.70;99.90
52187;DHT22;38161;53.020;6.598;2023-05-16T13:25:31;14.70;99.90
52187;DHT22;38161;53.020;6.598;2023-05-16T13:27:57;14.60;99.90
52187;DHT22;38161;53.020;6.598;2023-05-16T13:30:23;14.60;99.90
52187;DHT22;38161;53.020;6.598;2023-05-16T13:32:49;14.60;99.90
52187;DHT22;38161;53.020;6.598;2023-05-16T13:35:17;14.50;99.90
52187;DHT22;38161;53.020;6.598;2023-05-16T13:37:43;14.40;99.90
52187;DHT22;38161;53.020;6.598;2023-05-16T13:40:09;14.40;99.90
52187;DHT22;38161;53.020;6.598;2023-05-16T13:42:38;14.40;99.90
52187;DHT22;38161;53.020;6.598;2023-05-16T13:45:04;14.40;99.90
52187;DHT22;38161;53.020;6.598;2023-05-16T13:47:31;14.40;99.90
52187;DHT22;38161;53.020;6.598;2023-05-16T13:50:00;14.40;99.90
52187;DHT22;38161;53.020;6.598;2023-05-16T13:52:30;14.30;99.90
52187;DHT22;38161;53.020;6.598;2023-05-16T13:54:56;14.30;99.90
52187;DHT22;38161;53.020;6.598;2023-05-16T13:57:22;14.20;99.90
52187;DHT22;38161;53.020;6.598;2023-05-16T13:59:48;14.20;99.90
52187;DHT22;38161;53.020;6.598;2023-05-16T14:02:14;14.10;99.90
52187;DHT22;38161;53.020;6.598;2023-05-16T14:04:39;14.20;99.90
52187;DHT22;38161;53.020;6.598;2023-05-16T14:07:06;14.10;99.90
52187;DHT22;38161;53.020;6.598;2023-05-16T14:09:31;14.10;99.90
52187;DHT22;38161;53.020;6.598;2023-05-16T14:11:59;14.00;99.90
52187;DHT22;38161;53.020;6.598;2023-05-16T14:14:27;14.00;99.90
52187;DHT22;38161;53.020;6.598;2023-05-16T14:16:53;13.80;99.90
52187;DHT22;38161;53.020;6.598;2023-05-16T14:19:18;13.70;99.90
52187;DHT22;38161;53.020;6.598;2023-05-16T14:21:44;13.50;99.90
52187;DHT22;38161;53.020;6.598;2023-05-16T14:24:10;13.40;99.90
52187;DHT22;38161;53.020;6.598;2023-05-16T14:26:36;13.30;99.90
52187;DHT22;38161;53.020;6.598;2023-05-16T14:29:02;13.30;99.90
52187;DHT22;38161;53.020;6.598;2023-05-16T14:31:28;13.40;99.90
52187;DHT22;38161;53.020;6.598;2023-05-16T14:33:54;13.60;99.90
52187;DHT22;38161;53.020;6.598;2023-05-16T14:36:20;13.70;99.90
52187;DHT22;38161;53.020;6.598;2023-05-16T14:38:46;13.80;99.90
52187;DHT22;38161;53.020;6.598;2023-05-16T14:41:13;13.80;99.90
52187;DHT22;38161;53.020;6.598;2023-05-16T14:43:39;13.80;99.90
52187;DHT22;38161;53.020;6.598;2023-05-16T14:46:05;13.80;99.90
52187;DHT22;38161;53.020;6.598;2023-05-16T14:48:31;13.70;99.90
52187;DHT22;38161;53.020;6.598;2023-05-16T14:50:58;13.60;99.90
52187;DHT22;38161;53.020;6.598;2023-05-16T14:53:24;13.40;99.90
52187;DHT22;38161;53.020;6.598;2023-05-16T14:55:50;13.40;99.90
52187;DHT22;38161;53.020;6.598;2023-05-16T14:58:16;13.30;99.90
52187;DHT22;38161;53.020;6.598;2023-05-16T15:00:42;13.20;99.90
52187;DHT22;38161;53.020;6.598;2023-05-16T15:03:08;13.30;99.90
52187;DHT22;38161;53.020;6.598;2023-05-16T15:05:34;13.30;99.90
52187;DHT22;38161;53.020;6.598;2023-05-16T15:08:00;13.30;99.90
52187;DHT22;38161;53.020;6.598;2023-05-16T15:10:26;13.20;99.90
52187;DHT22;38161;53.020;6.598;2023-05-16T15:12:52;13.20;99.90
52187;DHT22;38161;53.020;6.598;2023-05-16T15:15:17;13.20;99.90
52187;DHT22;38161;53.020;6.598;2023-05-16T15:17:43;13.20;99.90
52187;DHT22;38161;53.020;6.598;2023-05-16T15:20:10;13.20;99.90
52187;DHT22;38161;53.020;6.598;2023-05-16T15:22:38;13.20;99.90
52187;DHT22;38161;53.020;6.598;2023-05-16T15:25:05;13.20;99.90
52187;DHT22;38161;53.020;6.598;2023-05-16T15:27:32;13.20;99.90
52187;DHT22;38161;53.020;6.598;2023-05-16T15:29:58;13.20;99.90
52187;DHT22;38161;53.020;6.598;2023-05-16T15:32:23;13.30;99.90
52187;DHT22;38161;53.020;6.598;2023-05-16T15:34:49;13.20;99.90
52187;DHT22;38161;53.020;6.598;2023-05-16T15:37:15;13.20;99.90
52187;DHT22;38161;53.020;6.598;2023-05-16T15:39:41;13.20;99.90
52187;DHT22;38161;53.020;6.598;2023-05-16T15:42:07;13.20;99.90
52187;DHT22;38161;53.020;6.598;2023-05-16T15:44:33;13.20;99.90
52187;DHT22;38161;53.020;6.598;2023-05-16T15:46:59;13.20;99.90
52187;DHT22;38161;53.020;6.598;2023-05-16T15:49:26;13.20;99.90
52187;DHT22;38161;53.020;6.598;2023-05-16T15:51:52;13.20;99.90
52187;DHT22;38161;53.020;6.598;2023-05-16T15:54:18;13.20;99.90
52187;DHT22;38161;53.020;6.598;2023-05-16T15:56:44;13.20;99.90
52187;DHT22;38161;53.020;6.598;2023-05-16T15:59:09;13.10;99.90
52187;DHT22;38161;53.020;6.598;2023-05-16T16:01:35;13.10;99.90
52187;DHT22;38161;53.020;6.598;2023-05-16T16:04:01;13.00;99.90